Time;durP1;ratioP1;P1;durP2;ratioP2;P2;SDS_P1;SDS_P2;PMS_P1;PMS_P2;Temp;Humidity;BMP_temperature;BMP_pressure;BME280_temperature;BME280_humidity;BME280_pressure;Samples;Min_cycle;Max_cycle;Signal;HPM_P1;HPM_P2
2022/02/02 00:00:08;;;;;;;0.00;0.00;;;;;;;19.78;52.02;99780.00;5033532;28;20037;-61
2022/02/02 00:02:45;;;;;;;0.55;0.20;;;;;;;19.72;51.98;99780.84;5032963;28;20029;-61
2022/02/02 00:07:50;;;;;;;0.15;0.10;;;;;;;19.67;52.16;99794.25;5032977;28;20109;-61
2022/02/02 00:13:02;;;;;;;0.60;0.05;;;;;;;19.65;51.42;99796.31;5033161;28;20029;-61
2022/02/02 00:20:59;;;;;;;0.30;0.20;;;;;;;19.64;52.45;99805.53;5032840;28;20031;-63
2022/02/02 00:23:31;;;;;;;0.10;0.00;;;;;;;19.66;52.63;99804.31;5032689;28;20083;-60
2022/02/02 00:26:05;;;;;;;0.08;0.08;;;;;;;19.61;52.17;99803.25;5032813;28;20125;-61
2022/02/02 00:28:35;;;;;;;0.10;0.00;;;;;;;19.59;51.77;99818.97;5032583;28;20030;-60
2022/02/02 00:31:04;;;;;;;1.65;0.15;;;;;;;19.57;52.00;99815.59;5032534;28;20034;-61
2022/02/02 00:33:36;;;;;;;0.30;0.10;;;;;;;19.57;52.56;99826.50;5032516;28;20063;-60
2022/02/02 00:36:09;;;;;;;0.20;0.10;;;;;;;19.54;52.54;99827.75;5032518;28;20025;-61
2022/02/02 00:38:34;;;;;;;0.22;0.00;;;;;;;19.52;52.34;99825.22;5032389;28;20427;-62
2022/02/02 00:40:59;;;;;;;0.28;0.00;;;;;;;19.57;51.79;99834.69;5031897;28;20029;-60
2022/02/02 00:43:25;;;;;;;0.30;0.10;;;;;;;19.51;52.25;99828.13;5032461;28;20075;-61
2022/02/02 00:45:50;;;;;;;0.05;0.00;;;;;;;19.50;52.69;99832.75;5032444;28;20026;-61
2022/02/02 00:48:18;;;;;;;1.35;0.00;;;;;;;19.51;52.37;99837.16;5032511;28;20024;-61
2022/02/02 00:50:44;;;;;;;0.10;0.10;;;;;;;19.46;51.82;99836.06;5032382;28;20029;-61
2022/02/02 00:53:10;;;;;;;0.85;0.10;;;;;;;19.50;52.47;99843.66;5032163;28;20045;-61
2022/02/02 00:55:37;;;;;;;0.70;0.10;;;;;;;19.49;52.31;99841.97;5032124;28;20560;-61
2022/02/02 00:58:03;;;;;;;0.35;0.00;;;;;;;19.46;52.48;99842.34;5031065;28;20116;-60
2022/02/02 01:00:30;;;;;;;1.45;0.03;;;;;;;19.46;51.90;99839.63;5032175;28;20026;-61
2022/02/02 01:02:55;;;;;;;0.05;0.00;;;;;;;19.42;52.65;99840.25;5032213;28;20032;-61
2022/02/02 01:05:20;;;;;;;0.20;0.00;;;;;;;19.42;52.17;99835.63;5032233;28;20022;-61
2022/02/02 01:21:55;;;;;;;0.20;0.20;;;;;;;19.39;52.52;99851.56;4951514;29;20418;-60
2022/02/02 01:29:47;;;;;;;0.20;0.10;;;;;;;19.40;51.78;99856.81;4951491;29;20034;-61
2022/02/02 01:32:13;;;;;;;0.35;0.08;;;;;;;19.35;52.08;99859.31;4951669;29;20039;-62
2022/02/02 01:34:38;;;;;;;0.40;0.08;;;;;;;19.35;51.89;99862.03;4951326;29;20467;-61
2022/02/02 01:37:04;;;;;;;0.80;0.00;;;;;;;19.33;52.65;99853.22;4951408;29;20047;-60
2022/02/02 01:39:30;;;;;;;0.75;0.10;;;;;;;19.32;51.92;99856.16;4950971;29;20043;-61
2022/02/02 01:41:58;;;;;;;0.17;0.10;;;;;;;19.32;52.09;99864.31;4951519;29;20479;-61
2022/02/02 01:44:41;;;;;;;0.47;0.10;;;;;;;19.32;51.61;99856.97;4951349;29;20035;-61
2022/02/02 01:47:08;;;;;;;0.00;0.00;;;;;;;19.32;52.20;99862.44;4951438;29;20059;-61
2022/02/02 01:52:43;;;;;;;2.05;0.10;;;;;;;19.29;51.95;99862.81;4970874;28;20113;-61
2022/02/02 01:55:09;;;;;;;0.20;0.20;;;;;;;19.28;51.72;99861.13;4973813;28;20054;-60
2022/02/02 02:00:07;;;;;;;1.17;0.15;;;;;;;19.29;52.37;99851.91;5035782;28;20029;-61
2022/02/02 02:02:35;;;;;;;0.35;0.00;;;;;;;19.26;51.64;99846.88;5035270;28;20037;-61
2022/02/02 02:05:00;;;;;;;0.22;0.00;;;;;;;19.28;51.64;99857.56;5035076;28;20021;-61
2022/02/02 02:07:26;;;;;;;0.20;0.08;;;;;;;19.29;51.67;99862.81;5035311;28;20017;-61
2022/02/02 02:09:53;;;;;;;0.70;0.10;;;;;;;19.26;51.85;99863.22;5035293;28;20065;-61
2022/02/02 02:12:18;;;;;;;0.00;0.00;;;;;;;19.25;51.75;99867.00;5035315;28;20029;-61
2022/02/02 02:15:02;;;;;;;0.35;0.28;;;;;;;19.26;51.93;99867.81;5035048;28;20033;-61
2022/02/02 02:17:27;;;;;;;0.30;0.03;;;;;;;19.25;52.44;99861.53;5035065;28;20083;-62
2022/02/02 02:19:53;;;;;;;0.00;0.00;;;;;;;19.22;51.27;99860.06;5035173;28;20469;-61
2022/02/02 02:22:24;;;;;;;0.20;0.08;;;;;;;19.23;51.83;99859.00;5035208;28;20026;-62
2022/02/02 02:24:50;;;;;;;0.28;0.08;;;;;;;19.21;52.17;99866.56;5035035;28;20017;-61
2022/02/02 02:27:18;;;;;;;0.20;0.00;;;;;;;19.25;51.30;99864.25;5034859;28;20030;-61
2022/02/02 02:57:12;;;;;;;0.22;0.05;;;;;;;19.20;51.38;99891.28;5032204;28;20084;-61
2022/02/02 02:59:48;;;;;;;0.50;0.10;;;;;;;19.17;50.97;99892.53;5031827;28;20476;-62
2022/02/02 03:51:20;;;;;;;0.73;0.10;;;;;;;19.10;50.65;99945.25;5033338;28;20332;-61
2022/02/02 03:58:35;;;;;;;0.85;0.10;;;;;;;19.08;50.77;99922.81;5013445;28;20405;-62
2022/02/02 04:06:28;;;;;;;0.10;0.05;;;;;;;19.09;50.86;99965.38;5013651;28;20076;-61
2022/02/02 04:08:53;;;;;;;0.10;0.08;;;;;;;19.09;51.65;99959.94;5013451;28;20421;-61
2022/02/02 04:11:40;;;;;;;0.00;0.00;;;;;;;19.06;50.77;99968.50;5013300;28;20461;-61
2022/02/02 04:54:46;;;;;;;0.50;0.10;;;;;;;19.04;51.20;100011.44;5009807;28;20432;-61
2022/02/02 05:03:34;;;;;;;0.22;0.15;;;;;;;20.16;48.13;100005.94;4970739;28;20079;-61
2022/02/02 05:05:42;;;;;;;0.10;0.10;;;;;;;20.58;47.13;100008.44;4970695;28;20386;-62
2022/02/02 05:19:03;;;;;;;0.15;0.15;;;;;;;21.43;45.74;100008.75;4970900;28;20033;-60
2022/02/02 05:53:48;;;;;;;0.00;0.00;;;;;;;22.07;45.07;100049.09;5013088;28;20088;-61
2022/02/02 05:56:13;;;;;;;0.20;0.05;;;;;;;22.10;44.37;100060.44;5013373;28;20064;-61
2022/02/02 05:58:39;;;;;;;0.32;0.10;;;;;;;22.10;44.82;100067.81;5013184;28;20296;-61
2022/02/02 06:01:11;;;;;;;1.40;0.52;;;;;;;22.13;45.03;100064.63;5013143;28;20124;-60
2022/02/02 06:03:53;;;;;;;0.15;0.00;;;;;;;22.17;44.28;100060.41;5013009;28;20197;-61
2022/02/02 06:06:23;;;;;;;0.20;0.10;;;;;;;22.19;44.77;100052.84;5012967;28;20025;-62
2022/02/02 06:08:49;;;;;;;0.85;0.15;;;;;;;22.21;44.42;100058.94;5013233;28;20188;-61
2022/02/02 06:11:17;;;;;;;0.43;0.10;;;;;;;22.15;45.39;100054.31;4996518;28;20048;-61
2022/02/02 06:13:50;;;;;;;0.10;0.00;;;;;;;22.15;44.22;100051.56;5013007;28;20030;-61
2022/02/02 06:16:16;;;;;;;0.35;0.17;;;;;;;22.23;45.04;100040.41;5011357;28;20064;-61
2022/02/02 06:18:43;;;;;;;1.08;0.43;;;;;;;22.25;44.62;100041.03;4997577;28;20027;-61
2022/02/02 06:21:10;;;;;;;0.40;0.10;;;;;;;22.27;44.35;100049.84;5006465;28;20030;-61
2022/02/02 06:23:38;;;;;;;2.42;0.20;;;;;;;22.27;44.41;100055.34;4995663;28;20037;-62
2022/02/02 06:26:05;;;;;;;0.88;0.10;;;;;;;22.30;45.26;100065.84;5003258;28;20440;-61
2022/02/02 06:28:35;;;;;;;5.72;0.20;;;;;;;22.30;44.56;100068.59;5010290;28;20063;-60
2022/02/02 06:31:05;;;;;;;0.20;0.00;;;;;;;22.34;45.13;100075.34;5031125;28;20063;-62
2022/02/02 06:33:33;;;;;;;0.22;0.10;;;;;;;22.31;45.07;100078.47;5033532;28;20045;-61
2022/02/02 06:35:59;;;;;;;0.20;0.17;;;;;;;22.31;45.18;100081.22;5034716;28;20025;-62
2022/02/02 06:38:25;;;;;;;4.18;0.40;;;;;;;22.34;45.32;100071.72;5032498;28;20119;-62
2022/02/02 06:40:56;;;;;;;0.45;0.10;;;;;;;22.37;45.27;100071.31;5034788;28;20049;-61
2022/02/02 06:43:22;;;;;;;0.60;0.10;;;;;;;22.32;45.45;100087.53;5033321;28;20022;-62
2022/02/02 06:45:49;;;;;;;1.73;0.20;;;;;;;22.39;45.58;100086.47;5034523;28;20029;-63
2022/02/02 06:48:14;;;;;;;0.55;0.15;;;;;;;22.39;44.79;100097.44;5034572;28;20053;-62
2022/02/02 06:50:43;;;;;;;0.47;0.15;;;;;;;22.43;45.16;100108.78;5034484;28;20420;-60
2022/02/02 06:53:28;;;;;;;0.75;0.20;;;;;;;22.38;45.11;100109.44;5034274;28;20392;-64
2022/02/02 06:56:37;;;;;;;1.85;0.20;;;;;;;22.42;44.89;100112.59;5034093;28;20105;-62
2022/02/02 07:02:22;;;;;;;0.50;0.10;;;;;;;22.46;45.49;100130.25;5031141;28;20388;-66
2022/02/02 07:18:38;;;;;;;0.47;0.10;;;;;;;22.48;45.73;100156.38;4915152;29;20092;-63
2022/02/02 07:21:39;;;;;;;1.35;0.10;;;;;;;22.51;44.91;100179.78;4915072;29;20055;-62
2022/02/02 07:29:29;;;;;;;0.43;0.10;;;;;;;22.54;45.76;100193.03;4915247;29;20327;-61
2022/02/02 07:32:13;;;;;;;0.40;0.08;;;;;;;22.56;44.88;100187.34;4915147;29;20038;-61
2022/02/02 07:34:48;;;;;;;0.88;0.25;;;;;;;22.58;44.79;100183.31;4916947;29;20428;-62
2022/02/02 07:37:26;;;;;;;0.65;0.10;;;;;;;22.58;45.74;100190.72;4933904;29;20083;-61
2022/02/02 07:39:55;;;;;;;0.40;0.10;;;;;;;22.58;45.50;100198.91;4935751;29;20495;-61
2022/02/02 07:42:24;;;;;;;0.63;0.10;;;;;;;22.60;44.74;100208.59;4953029;29;20035;-62
2022/02/02 07:44:52;;;;;;;0.45;0.10;;;;;;;22.61;45.47;100214.91;4952996;29;20110;-61
2022/02/02 07:47:19;;;;;;;0.52;0.10;;;;;;;22.59;45.91;100217.03;4952946;29;20031;-63
2022/02/02 07:49:49;;;;;;;1.48;0.22;;;;;;;22.58;45.27;100226.31;4952773;28;20122;-62
2022/02/02 07:52:18;;;;;;;0.60;0.17;;;;;;;22.63;45.16;100221.03;4963809;28;20070;-61
2022/02/02 07:54:45;;;;;;;0.35;0.10;;;;;;;22.61;44.87;100229.47;4978581;28;20424;-61
2022/02/02 07:57:13;;;;;;;0.50;0.00;;;;;;;22.61;45.73;100228.63;5016971;28;20029;-61
2022/02/02 07:59:54;;;;;;;0.43;0.25;;;;;;;22.59;45.30;100230.75;5035445;28;20067;-61
2022/02/02 08:02:25;;;;;;;0.35;0.08;;;;;;;22.63;45.18;100248.41;5028999;28;20057;-61
2022/02/02 08:04:50;;;;;;;0.47;0.10;;;;;;;22.62;45.47;100246.75;5033018;28;20021;-61
2022/02/02 08:07:23;;;;;;;0.57;0.30;;;;;;;22.63;44.83;100248.41;5032016;28;20067;-61
2022/02/02 08:09:51;;;;;;;0.50;0.20;;;;;;;22.66;45.18;100248.84;5026411;28;20060;-60
2022/02/02 08:12:19;;;;;;;0.57;0.10;;;;;;;22.67;45.13;100257.88;5031982;28;20030;-61
2022/02/02 08:14:46;;;;;;;0.63;0.10;;;;;;;22.65;44.64;100251.78;5031752;28;20022;-62
2022/02/02 08:17:11;;;;;;;0.75;0.35;;;;;;;22.63;45.30;100262.13;5032095;28;20415;-61
2022/02/02 08:19:39;;;;;;;0.22;0.00;;;;;;;22.66;45.40;100264.44;5031703;28;20025;-62
2022/02/02 08:22:04;;;;;;;0.90;0.30;;;;;;;22.71;45.25;100267.38;5031929;28;20551;-65
2022/02/02 08:24:30;;;;;;;0.60;0.10;;;;;;;22.73;45.43;100287.19;5029822;28;20026;-61
2022/02/02 08:26:55;;;;;;;0.73;0.13;;;;;;;22.68;44.91;100281.53;5036978;28;20021;-63
2022/02/02 08:29:23;;;;;;;1.55;0.10;;;;;;;22.68;44.45;100281.53;5032471;28;20171;-62
2022/02/02 08:31:48;;;;;;;0.20;0.13;;;;;;;22.71;45.77;100281.94;5029259;28;20026;-62
2022/02/02 08:34:14;;;;;;;0.55;0.15;;;;;;;22.70;45.21;100282.16;5032865;28;20370;-60
2022/02/02 08:36:41;;;;;;;0.47;0.15;;;;;;;22.68;45.18;100282.38;5030509;28;20021;-61
2022/02/02 08:41:49;;;;;;;0.43;0.10;;;;;;;22.68;45.40;100289.75;5031169;28;20030;-59
2022/02/02 08:45:13;;;;;;;1.88;0.10;;;;;;;22.65;45.27;100290.97;5031836;28;20037;-64
2022/02/02 08:47:07;;;;;;;0.52;0.22;;;;;;;22.70;44.52;100295.84;5033837;28;20503;-62
2022/02/02 08:49:38;;;;;;;1.40;0.10;;;;;;;22.65;45.11;100309.31;5031717;28;20159;-60
2022/02/02 08:52:03;;;;;;;0.30;0.10;;;;;;;22.70;45.50;100318.59;5025502;28;20022;-60
2022/02/02 08:54:35;;;;;;;0.75;0.10;;;;;;;22.66;45.39;100314.59;5028317;28;20034;-60
2022/02/02 08:59:56;;;;;;;1.65;0.40;;;;;;;22.68;45.12;100256.88;5031931;28;20032;-58
2022/02/02 09:02:27;;;;;;;1.00;0.10;;;;;;;22.72;45.48;100282.78;5034336;28;20033;-59
2022/02/02 09:07:36;;;;;;;2.83;0.20;;;;;;;22.65;45.69;100265.47;5027104;28;20087;-63
2022/02/02 09:10:16;;;;;;;0.93;0.13;;;;;;;22.69;45.19;100262.13;5032515;28;20068;-59
2022/02/02 09:21:45;;;;;;;0.52;0.30;;;;;;;22.72;46.32;100343.06;5041563;28;20119;-62
2022/02/02 09:23:56;;;;;;;0.57;0.20;;;;;;;22.71;45.93;100353.16;5033240;28;20120;-61
2022/02/02 09:31:25;;;;;;;0.25;0.17;;;;;;;22.70;46.01;100353.38;5026337;28;20370;-61
2022/02/02 09:32:10;;;;;;;2.53;0.40;;;;;;;22.75;46.37;100359.06;5031004;28;20106;-62
2022/02/02 09:34:35;;;;;;;;;;;;;;;22.73;46.82;100362.03;5027041;28;20121;-62
2022/02/02 09:37:00;;;;;;;0.95;0.30;;;;;;;22.70;46.42;100367.09;5026403;28;19932;-62
2022/02/02 09:39:36;;;;;;;1.10;0.30;;;;;;;22.70;46.26;100362.44;5032887;28;20539;-62
2022/02/02 09:42:10;;;;;;;2.38;0.40;;;;;;;22.77;46.17;100367.91;5028017;28;20069;-62
2022/02/02 09:44:39;;;;;;;1.55;0.25;;;;;;;22.74;46.36;100297.94;5041559;28;20116;-64
2022/02/02 09:47:16;;;;;;;0.57;0.20;;;;;;;22.74;46.20;100368.34;5037005;28;20037;-64
2022/02/02 09:50:13;;;;;;;1.85;0.55;;;;;;;22.77;46.71;100368.75;5029627;28;20215;-63
2022/02/02 09:52:37;;;;;;;0.75;0.45;;;;;;;22.77;45.87;100367.91;5032634;28;20480;-65
2022/02/02 09:57:54;;;;;;;1.85;0.30;;;;;;;22.80;45.99;100378.44;5035628;28;20064;-65
2022/02/02 10:05:47;;;;;;;;;;;;;;;22.84;45.75;100373.41;5034151;28;20029;-63
2022/02/02 10:08:49;;;;;;;0.40;0.20;;;;;;;22.84;46.71;100374.25;5040231;28;19924;-65
2022/02/02 10:14:17;;;;;;;1.38;0.40;;;;;;;22.77;46.45;100384.34;5030885;28;20033;-65
2022/02/02 10:16:45;;;;;;;0.25;0.22;;;;;;;22.76;46.14;100380.78;5043237;28;20493;-64
2022/02/02 10:19:19;;;;;;;0.55;0.25;;;;;;;22.73;46.46;100383.09;5048685;28;20071;-64
2022/02/02 10:21:45;;;;;;;0.75;0.20;;;;;;;22.75;46.32;100391.94;5040822;28;20055;-64
2022/02/02 10:24:10;;;;;;;0.55;0.10;;;;;;;22.71;45.59;100391.53;5045898;28;20476;-64
2022/02/02 10:26:47;;;;;;;0.40;0.15;;;;;;;22.73;45.72;100394.06;5032933;28;20033;-63
2022/02/02 10:29:15;;;;;;;1.55;0.38;;;;;;;22.76;45.85;100401.84;5030322;28;20087;-63
2022/02/02 10:31:49;;;;;;;0.32;0.10;;;;;;;22.73;45.27;100399.53;5024147;28;20032;-64
2022/02/02 10:34:16;;;;;;;1.17;0.30;;;;;;;22.75;45.59;100408.38;5031703;28;20040;-63
2022/02/02 10:36:43;;;;;;;0.57;0.20;;;;;;;22.74;45.29;100402.06;5030162;28;20044;-65
2022/02/02 10:39:13;;;;;;;2.17;0.43;;;;;;;22.79;45.51;100405.00;5036582;28;20353;-65
2022/02/02 10:42:01;;;;;;;1.52;0.38;;;;;;;22.77;46.05;100414.50;5032598;28;20404;-66
2022/02/02 10:44:38;;;;;;;0.20;0.10;;;;;;;22.78;46.00;100407.97;5033443;28;20128;-63
2022/02/02 10:47:18;;;;;;;0.95;0.10;;;;;;;22.78;45.64;100414.28;5034378;28;20507;-62
2022/02/02 10:49:56;;;;;;;0.98;0.20;;;;;;;22.76;45.78;100416.41;5029023;28;20044;-63
2022/02/02 10:52:39;;;;;;;4.00;0.50;;;;;;;22.74;45.77;100414.94;5029505;28;20025;-64
2022/02/02 11:09:22;;;;;;;0.30;0.10;;;;;;;22.82;45.10;100442.13;4944661;29;20042;-68
2022/02/02 11:11:49;;;;;;;0.35;0.10;;;;;;;22.80;45.45;100441.47;4947327;29;20039;-63
2022/02/02 11:14:33;;;;;;;1.08;0.13;;;;;;;22.76;46.04;100449.28;4926721;29;20420;-65
2022/02/02 11:17:09;;;;;;;0.73;0.13;;;;;;;22.76;45.58;100453.91;4948718;29;20039;-64
2022/02/02 11:19:38;;;;;;;1.10;0.20;;;;;;;22.78;45.84;100462.78;4936774;29;20043;-63
2022/02/02 11:22:30;;;;;;;2.30;0.30;;;;;;;22.77;45.43;100466.56;4944565;29;20062;-62
2022/02/02 11:25:02;;;;;;;0.40;0.10;;;;;;;22.76;46.35;100464.88;4929846;29;20042;-64
2022/02/02 11:27:42;;;;;;;0.50;0.10;;;;;;;22.79;45.87;100464.47;4951803;29;20035;-65
2022/02/02 11:30:28;;;;;;;0.47;0.10;;;;;;;22.79;46.09;100476.25;4942788;29;20491;-66
2022/02/02 11:32:56;;;;;;;2.00;0.30;;;;;;;22.84;45.69;100472.91;4893751;29;20083;-65
2022/02/02 11:35:42;;;;;;;0.98;0.40;;;;;;;22.78;46.18;100481.94;4874598;29;20050;-64
2022/02/02 11:38:19;;;;;;;0.85;0.22;;;;;;;22.80;45.46;100485.31;4888794;29;20047;-63
2022/02/02 11:41:17;;;;;;;1.13;0.22;;;;;;;22.80;45.65;100491.66;4896428;29;20075;-61
2022/02/02 11:43:54;;;;;;;0.85;0.10;;;;;;;22.82;46.08;100491.47;4896797;29;20044;-62
2022/02/02 11:46:53;;;;;;;0.75;0.30;;;;;;;22.77;45.44;100477.53;4969553;28;20038;-63
2022/02/02 11:49:21;;;;;;;0.85;0.20;;;;;;;22.79;46.11;100481.75;4957459;28;20569;-62
2022/02/02 11:51:47;;;;;;;0.82;0.20;;;;;;;22.78;45.87;100480.06;4956571;28;20066;-62
2022/02/02 11:54:15;;;;;;;0.90;0.20;;;;;;;22.82;45.64;100486.00;4962444;28;20051;-63
2022/02/02 11:57:03;;;;;;;1.00;0.20;;;;;;;22.76;45.92;100487.66;4967897;28;20482;-64
2022/02/02 12:00:07;;;;;;;0.93;0.30;;;;;;;22.68;46.05;100484.28;4964449;28;20069;-61
2022/02/02 12:27:52;;;;;;;0.60;0.10;;;;;;;22.80;45.90;100527.28;5007721;28;20400;-63
2022/02/02 12:47:17;;;;;;;0.93;0.30;;;;;;;22.64;46.49;100559.69;5022100;28;20038;-60
2022/02/02 12:56:07;;;;;;;0.88;0.20;;;;;;;22.25;47.03;100572.19;5024593;28;20092;-65
2022/02/02 12:58:35;;;;;;;0.70;0.10;;;;;;;22.66;47.12;100569.41;5022834;28;20401;-58
2022/02/02 13:01:10;;;;;;;2.97;0.45;;;;;;;22.82;48.15;100499.69;5027599;28;20021;-58
2022/02/02 13:03:40;;;;;;;0.57;0.10;;;;;;;22.73;47.33;100503.66;5025446;28;20120;-58
2022/02/02 13:06:15;;;;;;;1.75;0.28;;;;;;;22.67;47.80;100509.97;5025999;28;20437;-62
2022/02/02 13:08:42;;;;;;;0.63;0.28;;;;;;;22.76;47.45;100506.81;5011847;28;20053;-60
2022/02/02 13:11:08;;;;;;;3.20;0.40;;;;;;;22.75;47.37;100515.25;5023845;28;20025;-59
2022/02/02 13:13:33;;;;;;;4.97;0.30;;;;;;;22.83;47.00;100516.97;5018420;28;20040;-60
2022/02/02 13:16:01;;;;;;;1.83;0.65;;;;;;;22.92;47.43;100524.81;5022615;28;20492;-63
2022/02/02 13:18:43;;;;;;;0.82;0.20;;;;;;;22.85;46.75;100529.44;5019945;28;20033;-60
2022/02/02 13:21:14;;;;;;;1.35;0.30;;;;;;;22.88;46.74;100545.47;5025990;28;20469;-64
2022/02/02 13:29:44;;;;;;;1.00;0.20;;;;;;;22.77;46.93;100631.00;5026000;28;20091;-60
2022/02/02 13:37:53;;;;;;;1.60;0.28;;;;;;;22.73;47.20;100632.47;4958889;28;20069;-59
2022/02/02 13:43:25;;;;;;;1.25;0.35;;;;;;;22.83;48.93;100646.63;4951854;28;20036;-60
2022/02/02 14:04:00;;;;;;;1.95;0.17;;;;;;;23.16;46.94;100629.44;4940580;29;20404;-57
2022/02/02 14:06:41;;;;;;;6.47;0.50;;;;;;;23.12;47.00;100618.03;4947284;29;20042;-58
2022/02/02 14:09:22;;;;;;;1.90;0.70;;;;;;;23.17;46.64;100691.44;4942980;28;20031;-59
2022/02/02 14:33:26;;;;;;;1.15;0.25;;;;;;;23.06;49.43;100706.63;5010379;28;20040;-58
2022/02/02 14:35:58;;;;;;;0.90;0.10;;;;;;;23.10;48.74;100711.47;5002346;28;20038;-57
2022/02/02 14:38:25;;;;;;;1.27;0.30;;;;;;;23.05;48.18;100716.75;5000830;28;20022;-58
2022/02/02 14:43:25;;;;;;;1.40;0.40;;;;;;;23.05;48.27;100722.22;4999302;28;20030;-57
2022/02/02 14:45:55;;;;;;;0.90;0.20;;;;;;;23.07;48.36;100725.59;5005969;28;20023;-57
2022/02/02 14:48:29;;;;;;;1.30;0.30;;;;;;;23.03;47.73;100734.44;5009019;28;20553;-57
2022/02/02 14:53:34;;;;;;;1.13;0.20;;;;;;;23.00;48.14;100757.63;5010413;28;20053;-58
2022/02/02 14:56:30;;;;;;;0.35;0.20;;;;;;;23.00;47.12;100768.56;5021452;28;20034;-58
2022/02/02 15:05:31;;;;;;;1.02;0.30;;;;;;;23.04;46.95;100769.88;5025073;28;20044;-58
2022/02/02 15:08:32;;;;;;;0.60;0.10;;;;;;;23.06;46.99;100773.28;5028457;28;20040;-58
2022/02/02 15:16:47;;;;;;;1.67;0.30;;;;;;;23.02;46.48;100776.63;5017159;28;20037;-58
2022/02/02 15:24:14;;;;;;;1.67;0.30;;;;;;;23.02;46.66;100730.88;5035238;28;20075;-59
2022/02/02 15:32:14;;;;;;;1.17;0.10;;;;;;;23.00;45.49;100767.75;4972620;28;20142;-59
2022/02/02 15:34:49;;;;;;;1.45;0.30;;;;;;;23.05;45.39;100779.81;4972543;28;20502;-59
2022/02/02 15:39:59;;;;;;;1.67;0.30;;;;;;;22.98;45.67;100795.34;4972763;28;20487;-58
2022/02/02 15:54:41;;;;;;;0.65;0.20;;;;;;;23.03;45.23;100812.06;4972656;28;20039;-59
2022/02/02 15:58:29;;;;;;;1.20;0.22;;;;;;;23.06;44.59;100847.31;4972176;28;20035;-59
2022/02/02 16:03:52;;;;;;;1.10;0.28;;;;;;;23.04;45.05;100863.13;4971973;28;20035;-59
2022/02/02 16:06:22;;;;;;;1.92;0.52;;;;;;;23.01;45.19;100860.78;4971965;28;20085;-59
2022/02/02 16:08:55;;;;;;;1.05;0.20;;;;;;;23.02;45.54;100870.69;4995763;28;20535;-59
2022/02/02 16:11:26;;;;;;;0.50;0.08;;;;;;;23.06;44.74;100885.69;5032292;28;20060;-59
2022/02/02 16:13:57;;;;;;;1.55;0.30;;;;;;;23.05;44.57;100886.72;5033283;28;20080;-59
2022/02/02 16:18:55;;;;;;;0.50;0.20;;;;;;;23.07;44.93;100887.38;5033161;28;20025;-59
2022/02/02 16:37:39;;;;;;;1.10;0.65;;;;;;;22.96;43.76;100915.34;4971802;28;20093;-59
2022/02/02 16:40:07;;;;;;;0.45;0.17;;;;;;;22.99;44.91;100911.34;4971716;28;20039;-60
2022/02/02 16:45:18;;;;;;;0.85;0.15;;;;;;;23.04;44.35;100917.94;4971563;28;20034;-59
2022/02/02 16:47:43;;;;;;;1.33;0.35;;;;;;;23.04;44.43;100917.94;4971462;28;20383;-59
2022/02/02 16:50:14;;;;;;;0.82;0.30;;;;;;;23.05;44.56;100914.16;4971525;28;20105;-60
2022/02/02 16:52:39;;;;;;;0.95;0.28;;;;;;;23.05;44.15;100922.38;4971205;28;20038;-59
2022/02/02 16:55:12;;;;;;;2.08;0.40;;;;;;;23.03;43.98;100931.84;4971375;28;20039;-59
2022/02/02 16:57:55;;;;;;;1.45;0.10;;;;;;;23.02;44.52;100935.66;4971206;28;20368;-59
2022/02/02 17:24:23;;;;;;;0.60;0.30;;;;;;;23.02;44.13;100936.50;4971468;28;20065;-59
2022/02/02 17:26:43;;;;;;;0.40;0.00;;;;;;;23.05;43.71;100941.56;5036455;28;20028;-60
2022/02/02 17:30:41;;;;;;;0.93;0.25;;;;;;;23.03;43.87;100942.81;5036142;28;20037;-59
2022/02/02 17:33:11;;;;;;;0.28;0.10;;;;;;;23.07;44.20;100953.19;5036249;28;20025;-59
2022/02/02 17:35:56;;;;;;;1.30;0.30;;;;;;;23.04;43.62;100950.84;5035965;28;20048;-59
2022/02/02 17:38:32;;;;;;;0.47;0.20;;;;;;;23.04;44.26;100939.03;5036061;28;20021;-60
2022/02/02 18:00:46;;;;;;;1.27;0.25;;;;;;;23.03;43.52;100946.41;5035894;28;20462;-59
2022/02/02 18:19:08;;;;;;;0.65;0.20;;;;;;;23.02;43.25;100952.09;4993749;28;20121;-59
2022/02/02 18:21:34;;;;;;;1.35;0.32;;;;;;;23.06;43.02;100948.75;4993041;28;20081;-59
2022/02/02 18:29:58;;;;;;;1.00;0.47;;;;;;;23.09;43.10;100959.31;4991726;28;20116;-59
2022/02/02 18:38:09;;;;;;;0.32;0.20;;;;;;;23.05;43.01;100963.50;4974037;28;20121;-60
2022/02/02 18:40:54;;;;;;;2.53;0.22;;;;;;;23.05;43.85;100974.47;4970691;28;20182;-60
2022/02/02 18:45:27;;;;;;;0.38;0.10;;;;;;;23.05;43.39;100969.00;4973828;28;20411;-59
2022/02/02 18:48:18;;;;;;;1.42;0.20;;;;;;;23.08;43.52;100959.53;5014870;28;20040;-59
2022/02/02 18:58:56;;;;;;;1.17;0.10;;;;;;;23.06;42.94;100959.72;5014948;28;20030;-60
2022/02/02 19:04:21;;;;;;;1.90;0.22;;;;;;;23.10;43.31;100966.50;5015207;28;20029;-60
2022/02/02 20:11:38;;;;;;;1.45;0.40;;;;;;;23.06;42.83;101002.75;5033446;28;20377;-59
2022/02/02 20:14:04;;;;;;;0.82;0.63;;;;;;;23.07;42.87;101005.28;5033356;28;20380;-59
2022/02/02 20:16:30;;;;;;;2.88;0.57;;;;;;;23.07;42.99;101008.03;5033006;28;20029;-60
2022/02/02 20:18:58;;;;;;;0.95;0.28;;;;;;;23.07;43.05;101004.44;5033178;28;20034;-60
2022/02/02 20:21:28;;;;;;;2.88;0.25;;;;;;;23.10;42.70;101002.16;5033125;28;20055;-59
2022/02/02 20:23:53;;;;;;;1.95;0.20;;;;;;;23.09;42.87;101016.06;5033130;28;20033;-60
2022/02/02 20:26:22;;;;;;;0.20;0.20;;;;;;;23.10;43.21;101004.88;5033070;28;20030;-59
2022/02/02 20:28:48;;;;;;;1.45;0.30;;;;;;;23.11;42.84;101006.56;5032745;28;20059;-59
2022/02/02 20:31:15;;;;;;;0.43;0.20;;;;;;;23.11;43.49;101005.72;5032583;28;20100;-60
2022/02/02 20:33:41;;;;;;;1.40;0.30;;;;;;;23.11;43.40;101000.25;5032817;28;20056;-60
2022/02/02 20:36:07;;;;;;;2.15;0.40;;;;;;;23.13;43.18;101016.50;5032873;28;20503;-60
2022/02/02 20:38:33;;;;;;;2.17;0.28;;;;;;;23.17;42.95;101012.31;5032684;28;20029;-60
2022/02/02 20:41:00;;;;;;;0.98;0.20;;;;;;;23.11;42.87;101014.81;5032839;28;20032;-59
2022/02/02 20:43:53;;;;;;;0.93;0.25;;;;;;;23.11;42.89;101016.69;5032770;28;20101;-59
2022/02/02 21:05:26;;;;;;;0.50;0.10;;;;;;;23.14;42.75;101019.03;4971374;28;20018;-59
2022/02/02 21:10:29;;;;;;;0.75;0.28;;;;;;;23.11;42.49;101022.19;4971134;28;20046;-60
2022/02/02 21:15:41;;;;;;;0.43;0.15;;;;;;;23.14;43.04;101026.41;4971177;28;20114;-60
2022/02/02 21:18:10;;;;;;;0.63;0.20;;;;;;;23.08;42.74;101028.06;4971474;28;20530;-60
2022/02/02 21:20:50;;;;;;;1.20;0.13;;;;;;;23.13;43.20;101027.47;4971059;28;20036;-60
2022/02/02 21:28:29;;;;;;;0.43;0.15;;;;;;;23.07;43.31;101034.59;5001021;28;20037;-59
2022/02/02 21:30:54;;;;;;;0.57;0.20;;;;;;;23.13;43.32;101041.19;5032069;28;20036;-59
2022/02/02 21:33:20;;;;;;;1.67;0.35;;;;;;;23.17;42.77;101042.47;5032143;28;20037;-60
2022/02/02 21:35:49;;;;;;;1.52;0.65;;;;;;;23.08;43.19;101037.16;5032043;28;20033;-60
2022/02/02 21:38:21;;;;;;;0.40;0.17;;;;;;;23.14;42.64;101042.88;5032217;28;20083;-60
2022/02/02 21:40:52;;;;;;;0.93;0.25;;;;;;;23.11;43.28;101050.47;5032126;28;20026;-60
2022/02/02 21:43:18;;;;;;;2.53;0.22;;;;;;;23.14;42.84;101056.59;5032033;28;20358;-59
2022/02/02 21:45:43;;;;;;;0.45;0.10;;;;;;;23.10;42.90;101056.13;5032038;28;20071;-60
2022/02/02 21:48:08;;;;;;;1.27;0.43;;;;;;;23.16;42.57;101055.34;5032147;28;20045;-60
2022/02/02 21:50:54;;;;;;;1.42;0.35;;;;;;;23.13;42.39;101046.66;5014134;28;20036;-59
2022/02/02 21:53:20;;;;;;;1.33;0.20;;;;;;;23.12;42.99;101045.81;5032054;28;20052;-60
2022/02/02 21:55:46;;;;;;;0.80;0.38;;;;;;;23.10;43.71;101054.25;5031845;28;20041;-59
2022/02/02 21:58:12;;;;;;;0.90;0.32;;;;;;;23.10;42.77;101058.88;5031829;28;20032;-59
2022/02/02 22:00:38;;;;;;;0.40;0.28;;;;;;;23.18;42.67;101050.53;5031770;28;20076;-60
2022/02/02 22:03:04;;;;;;;0.50;0.20;;;;;;;23.10;42.96;101051.50;5032226;28;20032;-60
2022/02/02 22:05:29;;;;;;;1.73;0.30;;;;;;;23.07;42.74;101043.69;5031669;28;20025;-59
2022/02/02 22:07:55;;;;;;;0.68;0.20;;;;;;;23.10;42.83;101037.78;5031727;28;20128;-60
2022/02/02 22:10:21;;;;;;;1.35;0.20;;;;;;;23.19;43.53;101034.91;5035398;28;20021;-59
2022/02/02 22:12:46;;;;;;;2.40;0.40;;;;;;;23.13;42.82;101036.53;5035531;28;20052;-60
2022/02/02 22:15:17;;;;;;;3.97;0.38;;;;;;;23.14;42.91;101037.38;5035380;28;20029;-60